Airfield :
LOGIN :

Register | Disclaimer

   EN    FR    IT 

 










Legend :    VFR   Marginal VFR   IFR   Intensive IFR   Very Intensive IFR
Visi :
Ceiling :
>= 8 km
>= 3000ft
5 to 8 km
1000 to 3000 ft
1500m to 5 km
500 to 1000 ft
800 to 1500m
200 to 500 ft
< 800m
< 200 ft
Symbols :   Thunderstorms  Fog  Heavy snow  Heavy precipitations  Wind > 20 kt
SIGMETs :     Misc.  Thunderstorms  Icing  Turbulence  Mountain Waves  Volcanic Ashes







- Airport Elevation : 1276 ft
- IATA code : STR


EDDS - Stuttgart

CURRENT METAR :
  • 240820Z 28012KT 250V310 9999 FEW042 23/13 Q1019 NOSIG

EXPIRED METARs :
  • 240750Z 27011KT 240V300 9999 FEW041 22/12 Q1019 NOSIG
  • 240720Z 28009KT 240V330 9999 FEW038 22/13 Q1019 NOSIG
  • 240650Z 28009KT 240V300 9999 FEW030 SCT048 22/13 Q1019 NOSIG
  • 240620Z 28009KT 220V300 9999 SCT047 21/13 Q1019 NOSIG
  • 240550Z 25007KT 220V280 9999 SCT047 20/13 Q1019 NOSIG
  • 240520Z 26004KT 9999 BKN039 19/13 Q1019 NOSIG

TAF TAF EDDS
Valid from the 24 at 06:00 until the 25 at 06:00 UTC


240500Z 2406/2506 25005KT 9999 SCT040
BECMG 2408/2411 28010KT
BECMG 2417/2420 25005KT
No reported NOTAMs for that airfield.



MET'MAP, your aeronautical weather chart ! - Copyright ORBIFLY December 2007 - Disclaimer

ORBIFLY MET'MAP TEAM :

Programming & Development : Alexandra Zaïnal
Concept & Development : Baudouin d'Aumeries
Co-Development & Prog : Marc-Olivier Méhu
Technical & hardware support : Manuel Goepfert

Contact : metmap@orbifly.com




SOURCES & CREDITS :

   NOAA